createdAt,value
2023-02-16T00:00:46.294Z,30.47
2023-02-16T00:05:48.164Z,24.70
2023-02-16T00:11:09.678Z,27.60
2023-02-16T00:16:13.284Z,25.03
2023-02-16T00:21:15.200Z,27.03
2023-02-16T00:26:19.290Z,29.90
2023-02-16T00:31:23.313Z,27.43
2023-02-16T00:36:25.739Z,28.60
2023-02-16T00:41:51.801Z,27.57
2023-02-16T00:46:53.520Z,29.03
2023-02-16T00:51:55.235Z,28.35
2023-02-16T00:56:58.243Z,26.50
2023-02-16T01:01:59.903Z,28.00
2023-02-16T01:07:20.155Z,31.10
2023-02-16T01:12:23.194Z,30.80
2023-02-16T01:17:25.021Z,31.70
2023-02-16T01:22:33.311Z,29.55
2023-02-16T01:27:37.241Z,31.88
2023-02-16T01:32:39.006Z,30.03
2023-02-16T01:37:42.600Z,32.33
2023-02-16T01:42:47.994Z,31.00
2023-02-16T01:47:51.551Z,31.67
2023-02-16T01:52:54.821Z,31.30
2023-02-16T01:57:59.680Z,33.10
2023-02-16T02:03:20.456Z,33.87
2023-02-16T02:08:25.450Z,34.17
2023-02-16T02:13:29.414Z,33.33
2023-02-16T02:18:31.348Z,38.07
2023-02-16T02:23:45.095Z,36.33
2023-02-16T02:28:51.698Z,39.63
2023-02-16T02:34:01.898Z,37.07
2023-02-16T02:39:10.113Z,33.50
2023-02-16T02:44:13.288Z,33.13
2023-02-16T02:49:15.444Z,37.53
2023-02-16T02:54:38.753Z,39.63
2023-02-16T03:00:06.042Z,37.40
2023-02-16T03:05:08.505Z,37.40
2023-02-16T03:10:29.923Z,41.20
2023-02-16T03:15:33.014Z,46.50
2023-02-16T03:20:53.346Z,38.60
2023-02-16T03:26:13.702Z,40.50
2023-02-16T03:31:20.409Z,41.37
2023-02-16T03:36:22.293Z,42.13
2023-02-16T03:41:24.088Z,47.70
2023-02-16T03:46:27.181Z,50.57
2023-02-16T03:51:28.868Z,45.07
2023-02-16T03:56:30.585Z,46.77
2023-02-16T04:01:33.665Z,49.63
2023-02-16T04:06:35.347Z,43.03
2023-02-16T04:11:55.570Z,48.07
2023-02-16T04:16:58.593Z,54.40
2023-02-16T04:22:00.310Z,55.83
2023-02-16T04:27:02.017Z,57.47
2023-02-16T04:32:05.191Z,60.00
2023-02-16T04:37:06.985Z,50.92
2023-02-16T04:42:08.672Z,52.97
2023-02-16T04:47:11.761Z,53.47
2023-02-16T04:52:13.659Z,60.17
2023-02-16T04:57:15.642Z,56.03
2023-02-16T05:02:18.709Z,56.60
2023-02-16T05:07:20.377Z,63.50
2023-02-16T05:12:40.944Z,56.50
2023-02-16T05:17:44.023Z,64.10
2023-02-16T05:22:46.283Z,61.53
2023-02-16T05:27:48.008Z,54.45
2023-02-16T05:32:51.049Z,59.97
2023-02-16T05:37:52.733Z,58.00
2023-02-16T05:42:54.433Z,64.40
2023-02-16T05:47:57.529Z,68.70
2023-02-16T05:52:59.626Z,68.47
2023-02-16T05:58:01.397Z,66.20
2023-02-16T06:03:04.499Z,64.07
2023-02-16T06:08:06.171Z,63.03
2023-02-16T06:13:07.823Z,64.83
2023-02-16T06:18:11.376Z,63.47
2023-02-16T06:23:13.247Z,61.47
2023-02-16T06:28:14.919Z,68.17
2023-02-16T06:33:17.948Z,61.87
2023-02-16T06:38:19.629Z,54.77
2023-02-16T06:43:21.423Z,68.20
2023-02-16T06:48:24.502Z,68.10
2023-02-16T06:53:44.884Z,61.37
2023-02-16T06:58:46.566Z,63.93
2023-02-16T07:03:49.985Z,58.13
2023-02-16T07:08:51.630Z,59.50
2023-02-16T07:14:11.866Z,52.87
2023-02-16T07:19:14.903Z,54.30
2023-02-16T07:24:16.878Z,54.50
2023-02-16T07:29:18.820Z,53.77
2023-02-16T07:34:22.136Z,51.40
2023-02-16T07:39:23.970Z,57.70
2023-02-16T07:44:26.010Z,55.20
2023-02-16T07:49:29.038Z,56.87
2023-02-16T07:54:31.190Z,52.57
2023-02-16T07:59:32.831Z,52.37
2023-02-16T08:04:35.893Z,52.20
2023-02-16T08:09:37.606Z,52.27
2023-02-16T08:14:39.532Z,50.40
2023-02-16T08:19:42.620Z,52.37
2023-02-16T08:24:44.324Z,48.23
2023-02-16T08:29:46.037Z,43.57
2023-02-16T08:34:49.694Z,40.10
2023-02-16T08:39:51.928Z,49.43
2023-02-16T08:44:54.523Z,38.60
2023-02-16T08:49:57.569Z,43.43
2023-02-16T08:54:59.273Z,34.40
2023-02-16T09:00:20.085Z,36.37
2023-02-16T09:05:23.186Z,32.40
2023-02-16T09:10:24.998Z,36.43
2023-02-16T09:15:26.733Z,34.33
2023-02-16T09:20:29.744Z,32.30
2023-02-16T09:25:33.859Z,30.45
2023-02-16T09:30:38.094Z,29.70
2023-02-16T09:35:41.130Z,27.98
2023-02-16T09:40:42.798Z,36.00
2023-02-16T09:45:47.571Z,27.30
2023-02-16T09:50:54.378Z,29.00
2023-02-16T09:56:03.162Z,30.70
2023-02-16T10:01:08.497Z,35.90
2023-02-16T10:06:25.029Z,32.17
2023-02-16T10:11:45.565Z,34.90
2023-02-16T10:16:51.680Z,35.87
2023-02-16T10:21:56.433Z,38.10
2023-02-16T10:27:02.180Z,40.00
2023-02-16T10:32:11.654Z,38.80
2023-02-16T10:37:35.282Z,44.60
2023-02-16T10:42:41.815Z,40.63
2023-02-16T10:47:44.060Z,43.10
2023-02-16T10:52:47.061Z,41.40
2023-02-16T10:57:54.287Z,44.47
2023-02-16T11:02:55.987Z,46.90
2023-02-16T11:08:02.810Z,47.80
2023-02-16T11:13:04.495Z,41.90
2023-02-16T11:18:08.075Z,44.80
2023-02-16T11:23:15.400Z,45.30
2023-02-16T11:28:17.072Z,49.67
2023-02-16T11:33:20.931Z,45.47
2023-02-16T11:38:31.476Z,40.20
2023-02-16T11:43:35.197Z,47.63
2023-02-16T11:48:37.971Z,43.72
2023-02-16T11:53:42.512Z,51.00
2023-02-16T11:58:45.005Z,40.27
2023-02-16T12:03:59.967Z,42.50
2023-02-16T12:09:13.210Z,43.50
2023-02-16T12:14:22.366Z,44.73
2023-02-16T12:19:30.452Z,42.93
2023-02-16T12:24:40.410Z,40.40
2023-02-16T12:29:44.933Z,42.57
2023-02-16T12:34:54.059Z,40.57
2023-02-16T12:40:00.448Z,45.40
2023-02-16T12:45:04.375Z,49.60
2023-02-16T12:50:07.929Z,41.97
2023-02-16T12:55:18.902Z,41.07
2023-02-16T13:00:23.997Z,43.97
2023-02-16T13:05:28.420Z,43.37
2023-02-16T13:10:33.549Z,41.47
2023-02-16T13:15:37.061Z,41.20
2023-02-16T13:20:39.061Z,42.47
2023-02-16T13:25:53.272Z,40.40
2023-02-16T13:31:15.236Z,38.77
2023-02-16T13:36:29.498Z,41.43
2023-02-16T13:41:42.176Z,39.53
2023-02-16T13:46:46.650Z,40.37
2023-02-16T13:51:48.333Z,41.83
2023-02-16T13:56:51.477Z,37.70
2023-02-16T14:01:54.260Z,42.30
2023-02-16T14:07:20.464Z,39.40
2023-02-16T14:12:26.717Z,39.03
2023-02-16T14:17:30.385Z,35.33
2023-02-16T14:22:35.255Z,42.67
2023-02-16T14:27:43.806Z,34.53
2023-02-16T14:32:46.422Z,40.60
2023-02-16T14:37:53.246Z,37.30
2023-02-16T14:42:57.784Z,37.03
2023-02-16T14:48:05.131Z,36.27
2023-02-16T14:53:21.589Z,40.50
2023-02-16T14:58:29.162Z,30.30
2023-02-16T15:03:39.720Z,33.40
2023-02-16T15:08:48.609Z,32.47
2023-02-16T15:13:53.350Z,34.50
2023-02-16T15:18:55.846Z,33.63
2023-02-16T15:23:58.313Z,32.33
2023-02-16T15:29:02.266Z,32.33
2023-02-16T15:34:05.631Z,36.93
2023-02-16T15:39:07.930Z,30.50
2023-02-16T15:44:27.830Z,30.90
2023-02-16T15:49:34.718Z,29.93
2023-02-16T15:54:37.026Z,35.13
2023-02-16T15:59:41.067Z,39.07
2023-02-16T16:04:43.830Z,51.27
2023-02-16T16:09:45.894Z,45.17
2023-02-16T16:14:51.481Z,40.40
2023-02-16T16:19:53.170Z,40.60
2023-02-16T16:24:54.887Z,34.38
2023-02-16T16:30:15.345Z,38.97
2023-02-16T16:35:21.330Z,32.93
2023-02-16T16:40:25.402Z,33.63
2023-02-16T16:45:36.348Z,34.23
2023-02-16T16:50:39.792Z,30.30
2023-02-16T16:55:41.638Z,34.33
2023-02-16T17:00:44.741Z,30.70
2023-02-16T17:05:46.575Z,31.60
2023-02-16T17:10:48.329Z,31.20
2023-02-16T17:15:53.990Z,34.70
2023-02-16T17:20:55.672Z,29.77
2023-02-16T17:25:57.395Z,30.50
2023-02-16T17:31:00.464Z,37.03
2023-02-16T17:36:03.074Z,30.67
2023-02-16T17:41:05.089Z,34.77
2023-02-16T17:46:08.378Z,31.30
2023-02-16T17:51:13.606Z,35.07
2023-02-16T17:56:16.443Z,33.50
2023-02-16T18:01:19.872Z,31.80
2023-02-16T18:06:24.405Z,35.40
2023-02-16T18:11:26.224Z,33.60
2023-02-16T18:16:29.283Z,42.30
2023-02-16T18:21:31.075Z,42.63
2023-02-16T18:26:33.693Z,36.67
2023-02-16T18:31:36.762Z,36.20
2023-02-16T18:36:38.673Z,39.63
2023-02-16T18:41:40.348Z,40.20
2023-02-16T18:46:43.454Z,58.73
2023-02-16T18:51:45.337Z,50.20
2023-02-16T18:56:47.731Z,47.93
2023-02-16T19:01:56.069Z,36.80
2023-02-16T19:06:58.417Z,40.27
2023-02-16T19:12:00.057Z,67.33
2023-02-16T19:17:03.280Z,64.37
2023-02-16T19:22:05.080Z,38.47
2023-02-16T19:27:06.788Z,33.13
2023-02-16T19:32:09.848Z,39.97
2023-02-16T19:37:11.606Z,34.93
2023-02-16T19:42:13.351Z,38.90
2023-02-16T19:47:16.462Z,33.23
2023-02-16T19:52:18.204Z,37.17
2023-02-16T19:57:19.956Z,42.77
2023-02-16T20:02:23.103Z,39.93
2023-02-16T20:07:25.009Z,55.50
2023-02-16T20:12:28.510Z,68.70
2023-02-16T20:17:31.528Z,44.17
2023-02-16T20:22:33.277Z,39.10
2023-02-16T20:27:35.042Z,40.57
2023-02-16T20:32:38.260Z,36.77
2023-02-16T20:37:39.995Z,41.73
2023-02-16T20:42:41.778Z,41.50
2023-02-16T20:47:44.927Z,40.00
2023-02-16T20:52:46.755Z,42.53
2023-02-16T20:57:48.464Z,43.00
2023-02-16T21:02:51.717Z,46.00
2023-02-16T21:07:53.514Z,41.30
2023-02-16T21:12:55.835Z,48.63
2023-02-16T21:17:59.216Z,45.30
2023-02-16T21:23:03.499Z,48.73
2023-02-16T21:28:05.221Z,59.47
2023-02-16T21:33:08.262Z,43.67
2023-02-16T21:38:09.946Z,48.40
2023-02-16T21:43:12.100Z,46.57
2023-02-16T21:48:33.501Z,49.07
2023-02-16T21:53:35.271Z,56.23
2023-02-16T21:58:36.949Z,58.37
2023-02-16T22:03:40.063Z,76.50
2023-02-16T22:08:41.841Z,46.80
2023-02-16T22:13:43.656Z,45.10
2023-02-16T22:18:46.744Z,50.87
2023-02-16T22:23:48.422Z,58.23
2023-02-16T22:28:50.494Z,54.13
2023-02-16T22:33:56.207Z,54.33
2023-02-16T22:38:58.015Z,58.37
2023-02-16T22:44:00.000Z,55.50
2023-02-16T22:49:03.088Z,53.40
2023-02-16T22:54:04.971Z,53.40
2023-02-16T22:59:06.931Z,46.67
2023-02-16T23:04:13.135Z,49.50
2023-02-16T23:09:16.099Z,58.20
2023-02-16T23:14:18.088Z,50.73
2023-02-16T23:19:24.121Z,51.47
2023-02-16T23:24:25.953Z,49.13
2023-02-16T23:29:27.770Z,61.23
2023-02-16T23:34:30.786Z,53.00
2023-02-16T23:39:32.446Z,51.47
2023-02-16T23:44:34.430Z,49.07
2023-02-16T23:49:37.434Z,54.13
2023-02-16T23:54:39.117Z,48.50
2023-02-16T23:59:41.572Z,50.70
